Data for 06/20/2016

Time Sea-Level Adjusted Pressure Absolute Pressure Temperature Relative Humidity Dew Point   
(mb) (inHg) (mb) (inHg) (C) (F) (%) (C) (F)
00:05 1028 30.36 857 25.31 11.3 52.3 43 -0.8 30.6
00:10 1028 30.36 857 25.31 11.4 52.5 43 -0.8 30.6
00:15 1028 30.36 857 25.31 11.7 53 41 -1.2 29.8
00:20 1028 30.36 857 25.31 12 53.6 43 -0.3 31.5
00:25 1028 30.36 857 25.31 11.9 53.5 43 -0.1 31.8
00:30 1028 30.36 857 25.31 11.9 53.3 40 -1.1 29.9
00:35 1028 30.36 857 25.31 11.8 53.3 43 -0.1 31.7
00:40 1028 30.36 857 25.31 11.6 52.8 42 -0.8 30.6
00:45 1028 30.36 857 25.31 11.3 52.4 44 -0.4 31.3
00:50 1028 30.36 857 25.31 11.1 52 41 -1.6 29.2
00:55 1028 30.36 857 25.31 11.2 52.2 45 -0.1 31.8
01:00 1028 30.36 857 25.31 11.1 52 42 -1.1 30
01:05 1028 30.36 857 25.31 11.2 52.2 45 -0.3 31.4
01:10 1027 30.33 857 25.31 11 51.7 46 -0.3 31.5
01:15 1027 30.33 857 25.31 10.8 51.5 43 -1.1 30.1
01:20 1027 30.33 857 25.31 10.9 51.6 45 -0.7 30.8
01:25 1027 30.33 857 25.31 10.7 51.2 45 -0.8 30.5
01:30 1027 30.33 857 25.31 10.6 51 43 -1.3 29.7
01:35 1027 30.33 857 25.31 10.5 51 45 -0.8 30.6
01:40 1027 30.33 857 25.31 10.4 50.7 47 -0.4 31.2
01:45 1027 30.33 857 25.31 10.2 50.4 46 -0.8 30.5
01:50 1027 30.33 857 25.31 10.3 50.5 46 -0.7 30.7
01:55 1027 30.33 857 25.31 10.4 50.6 46 -0.8 30.6
02:00 1027 30.33 856 25.28 10.5 50.9 44 -1.4 29.6
02:05 1027 30.33 857 25.31 10.7 51.3 45 -0.6 30.9
02:10 1027 30.33 857 25.31 10.5 50.9 47 -0.4 31.2
02:15 1027 30.33 857 25.31 10.4 50.7 46 -0.7 30.7
02:20 1027 30.33 857 25.31 10.7 51.2 40 -2.3 27.8
02:25 1027 30.33 856 25.28 11.7 53 34 -3.8 25.2
02:30 1027 30.33 857 25.31 12.9 55.2 30 -4 24.7
02:35 1027 30.33 857 25.31 13.4 56.1 29 -4.1 24.7
02:40 1027 30.33 856 25.28 13.5 56.3 30 -3.9 25
02:45 1027 30.33 857 25.31 13.5 56.3 29 -4 24.9
02:50 1027 30.33 857 25.31 13.5 56.2 29 -4 24.9
02:55 1027 30.33 857 25.31 13.3 56 30 -4 24.9
03:00 1027 30.33 857 25.31 13.2 55.7 30 -4 24.8
03:05 1027 30.33 857 25.31 13.1 55.5 30 -3.9 25
03:10 1027 30.33 857 25.31 13 55.3 31 -3.9 25
03:15 1027 30.33 857 25.31 12.9 55.2 31 -3.9 24.9
03:20 1027 30.33 857 25.31 12.7 54.9 31 -4 24.8
03:25 1027 30.33 857 25.31 12.8 55 30 -4.3 24.2
03:30 1027 30.33 857 25.31 12.9 55.3 30 -4.3 24.3
03:35 1027 30.33 856 25.28 13 55.4 30 -4.2 24.4
03:40 1027 30.33 857 25.31 12.8 55.1 30 -4.1 24.6
03:45 1027 30.33 857 25.31 12.6 54.7 31 -3.9 24.9
03:50 1027 30.33 857 25.31 12.5 54.6 31 -4.1 24.6
03:55 1027 30.33 856 25.28 12.6 54.7 31 -4.2 24.5
04:00 1027 30.33 856 25.28 12.6 54.6 31 -4.2 24.4
04:05 1027 30.33 856 25.28 12.6 54.7 31 -4.2 24.4
04:10 1027 30.33 856 25.28 12.7 54.9 31 -4.1 24.6
04:15 1027 30.33 856 25.28 12.6 54.7 31 -4 24.9
04:20 1027 30.33 856 25.28 12.5 54.4 31 -4.2 24.5
04:25 1027 30.33 856 25.28 12.5 54.6 31 -4.2 24.5
04:30 1027 30.33 856 25.28 12.6 54.7 31 -4.1 24.7
04:35 1027 30.33 856 25.28 12.6 54.8 31 -4.1 24.6
04:40 1027 30.33 856 25.28 12.6 54.7 31 -4.1 24.7
04:45 1027 30.33 856 25.28 12.6 54.6 31 -4 24.8
04:50 1027 30.33 856 25.28 12.5 54.5 31 -4 24.7
04:55 1027 30.33 856 25.28 12.6 54.6 31 -4 24.8
05:00 1027 30.33 856 25.28 12.6 54.6 31 -3.9 25
05:05 1027 30.33 856 25.28 12.5 54.5 32 -3.9 25
05:10 1027 30.33 856 25.28 12.4 54.4 32 -3.7 25.3
05:15 1027 30.33 856 25.28 12.4 54.3 32 -3.8 25.2
05:20 1027 30.33 856 25.28 12.4 54.3 32 -3.6 25.4
05:25 1027 30.33 856 25.28 12.3 54.1 33 -3.6 25.5
05:30 1027 30.33 857 25.31 12.3 54.1 33 -3.5 25.7
05:35 1027 30.33 857 25.31 12.2 53.9 33 -3.5 25.7
05:40 1027 30.33 857 25.31 12.2 54 33 -3.5 25.8
05:45 1027 30.33 857 25.31 12.3 54.1 33 -3.6 25.6
05:50 1027 30.33 857 25.31 12.3 54.2 33 -3.3 26
05:55 1027 30.33 857 25.31 12.4 54.3 33 -3.3 26.1
06:00 1027 30.33 857 25.31 12.4 54.4 33 -3.3 26.1
06:05 1027 30.33 857 25.31 12.4 54.3 34 -3 26.6
06:10 1027 30.33 857 25.31 12.4 54.3 34 -3.1 26.5
06:15 1027 30.33 857 25.31 12.5 54.4 33 -3.2 26.3
06:20 1027 30.33 857 25.31 12.5 54.5 34 -2.9 26.7
06:25 1027 30.33 857 25.31 12.5 54.5 34 -2.9 26.8
06:30 1027 30.33 857 25.31 12.6 54.6 34 -3 26.7
06:35 1027 30.33 857 25.31 12.7 54.8 34 -2.8 26.9
06:40 1027 30.33 857 25.31 12.8 55 33 -3.1 26.5
06:45 1027 30.33 857 25.31 12.9 55.2 33 -2.9 26.7
06:50 1027 30.33 857 25.31 13 55.4 33 -2.8 27
06:55 1027 30.33 857 25.31 13.1 55.6 33 -2.7 27.2
07:00 1027 30.33 857 25.31 13.2 55.8 33 -2.6 27.3
07:05 1027 30.33 857 25.31 13.3 56 33 -2.5 27.6
07:10 1027 30.33 857 25.31 13.4 56.2 33 -2.5 27.4
07:15 1027 30.33 857 25.31 13.4 56.2 33 -2.4 27.7
07:20 1027 30.33 857 25.31 13.5 56.3 33 -2.3 27.9
07:25 1027 30.33 857 25.31 13.5 56.4 33 -2.2 28.1
07:30 1027 30.33 857 25.31 13.7 56.7 33 -2.1 28.2
07:35 1027 30.33 857 25.31 13.9 57 33 -2.1 28.1
07:40 1027 30.33 857 25.31 14 57.2 33 -2 28.5
07:45 1027 30.33 857 25.31 14.2 57.5 33 -2 28.4
07:50 1027 30.33 857 25.31 14.4 57.9 33 -1.5 29.2
07:55 1027 30.33 857 25.31 14.5 58.2 32 -1.8 28.8
08:00 1027 30.33 857 25.31 14.6 58.2 33 -1.7 29
08:05 1027 30.33 857 25.31 14.8 58.6 33 -1.3 29.7
08:10 1027 30.33 857 25.31 14.9 58.9 32 -1.4 29.4
08:15 1027 30.33 857 25.31 15 59.1 32 -1.5 29.4
08:20 1027 30.33 857 25.31 15 59 32 -1.6 29.1
08:25 1027 30.33 857 25.31 15.3 59.5 31 -1.6 29.2
08:30 1027 30.33 857 25.31 15.8 60.4 31 -1.4 29.4
08:35 1027 30.33 856 25.28 16.3 61.3 30 -1.4 29.4
08:40 1027 30.33 856 25.28 16.4 61.4 29 -1.6 29.2
08:45 1027 30.33 856 25.28 16.4 61.6 29 -1.3 29.6
08:50 1027 30.33 856 25.28 16.3 61.3 29 -1.7 29
08:55 1027 30.33 856 25.28 16.4 61.5 29 -1.5 29.3
09:00 1027 30.33 856 25.28 16.8 62.2 29 -1.3 29.6
09:05 1027 30.33 856 25.28 16.9 62.4 29 -1.1 30
09:10 1027 30.33 856 25.28 17 62.6 28 -1.3 29.6
09:15 1027 30.33 856 25.28 17.2 63 29 -1 30.2
09:20 1027 30.33 856 25.28 17.3 63.2 28 -1.3 29.6
09:25 1027 30.33 856 25.28 17.8 64.1 28 -0.9 30.3
09:30 1027 30.33 856 25.28 18.1 64.5 27 -0.9 30.3
09:35 1027 30.33 856 25.28 18.5 65.3 28 -0.2 31.7
09:40 1027 30.33 856 25.28 18.4 65.2 27 -0.8 30.5
09:45 1027 30.33 856 25.28 18.9 66 27 -0.5 31
09:50 1027 30.33 856 25.28 19.1 66.4 28 0.4 32.6
09:55 1027 30.33 856 25.28 19.3 66.8 29 0.8 33.4
10:00 1027 30.33 856 25.28 18.9 66 30 1.3 34.3
10:05 1026 30.3 856 25.28 19.1 66.4 30 1.3 34.3
10:10 1026 30.3 856 25.28 19.1 66.4 30 1.5 34.6
10:15 1026 30.3 856 25.28 19 66.2 30 1.2 34.2
10:20 1026 30.3 856 25.28 19.6 67.2 28 0.9 33.6
10:25 1026 30.3 856 25.28 20.1 68.1 29 1.6 34.9
10:30 1026 30.3 856 25.28 20.2 68.3 30 2.1 35.8
10:35 1026 30.3 855 25.25 20.1 68.2 29 1.8 35.3
10:40 1026 30.3 855 25.25 19.4 66.9 31 1.9 35.4
10:45 1026 30.3 855 25.25 19.8 67.7 30 1.9 35.4
10:50 1026 30.3 855 25.25 20.5 69 30 2.3 36.2
10:55 1026 30.3 855 25.25 20.9 69.5 28 2 35.7
11:00 1026 30.3 855 25.25 20.5 68.9 29 2.1 35.7
11:05 1026 30.3 855 25.25 20.8 69.5 29 2.2 36
11:10 1026 30.3 855 25.25 21 69.8 28 2.2 36
11:15 1026 30.3 855 25.25 21.2 70.1 28 2.1 35.8
11:20 1026 30.3 855 25.25 21.8 71.2 28 2.5 36.5
11:25 1026 30.3 855 25.25 21.9 71.4 27 2.1 35.7
11:30 1026 30.3 855 25.25 22 71.6 28 2.6 36.7
11:35 1026 30.3 855 25.25 22 71.6 27 2.2 35.9
11:40 1025 30.27 855 25.25 22.2 72 27 2.4 36.3
11:45 1025 30.27 855 25.25 21.9 71.5 26 1.9 35.4
11:50 1025 30.27 854 25.22 22.8 73.1 26 2.5 36.4
11:55 1025 30.27 854 25.22 23.1 73.7 26 2.6 36.7
12:00 1025 30.27 854 25.22 23.2 73.7 26 2.9 37.2
12:05 1025 30.27 854 25.22 23.4 74 27 3.5 38.4
12:10 1025 30.27 854 25.22 23.4 74.2 26 3 37.4
12:15 1025 30.27 854 25.22 23.8 74.8 24 2.5 36.5
12:20 1025 30.27 854 25.22 24.2 75.5 26 3.6 38.4
12:25 1025 30.27 854 25.22 23.4 74.2 25 2.5 36.6
12:30 1025 30.27 854 25.22 23.4 74.2 27 3.3 38
12:35 1025 30.27 854 25.22 23.9 75 26 3.4 38
12:40 1025 30.27 854 25.22 23.3 74 26 2.9 37.2
12:45 1025 30.27 854 25.22 24.6 76.2 26 3.9 39
12:50 1024 30.24 854 25.22 24.1 75.4 26 3.6 38.5
12:55 1024 30.24 854 25.22 25.1 77.1 25 3.9 39
13:00 1024 30.24 853 25.19 24.4 75.8 26 4 39.2
13:05 1024 30.24 853 25.19 25 77 24 3.5 38.3
13:10 1024 30.24 853 25.19 25.1 77.1 24 3.3 37.9
13:15 1024 30.24 853 25.19 25.3 77.6 23 3 37.4
13:20 1024 30.24 853 25.19 26.3 79.4 22 3.1 37.5
13:25 1024 30.24 853 25.19 26.1 79 23 3.5 38.3
13:30 1024 30.24 853 25.19 25.8 78.4 22 2.9 37.1
13:35 1024 30.24 853 25.19 26.1 79.1 21 2.5 36.6
13:40 1023 30.21 853 25.19 26.1 79 22 3.3 37.9
13:45 1023 30.21 853 25.19 26.2 79.1 23 3.6 38.5
13:50 1023 30.21 852 25.16 27.2 81 21 3.5 38.4
13:55 1023 30.21 852 25.16 27.6 81.6 23 4.6 40.4
14:00 1023 30.21 852 25.16 26.6 79.8 24 4.5 40.2
14:05 1023 30.21 852 25.16 27.1 80.8 23 4.8 40.6
14:10 1023 30.21 852 25.16 27.2 80.9 22 3.6 38.5
14:15 1023 30.21 852 25.16 27.2 80.9 23 4.7 40.5
14:20 1023 30.21 852 25.16 27.4 81.2 21 3.4 38.1
14:25 1023 30.21 852 25.16 28.1 82.6 17 1.4 34.6
14:30 1023 30.21 852 25.16 28.3 82.9 19 2.9 37.2
14:35 1023 30.21 852 25.16 27.7 81.8 19 2.6 36.6
14:40 1023 30.21 852 25.16 27.1 80.7 21 3.3 37.9
14:45 1022 30.18 852 25.16 27 80.6 24 5 41
14:50 1022 30.18 852 25.16 27 80.6 25 5.5 41.9
14:55 1022 30.18 852 25.16 27.1 80.7 24 5.3 41.5
15:00 1022 30.18 852 25.16 27.2 81 22 4.1 39.3
15:05 1022 30.18 852 25.16 26.9 80.5 23 4.4 40
15:10 1022 30.18 851 25.13 26.9 80.4 24 4.9 40.9
15:15 1022 30.18 851 25.13 27.1 80.8 21 3.4 38.1
15:20 1022 30.18 851 25.13 27.4 81.3 19 1.7 35
15:25 1022 30.18 851 25.13 27 80.5 23 4.1 39.3
15:30 1022 30.18 851 25.13 26.6 80 24 4.7 40.5
15:35 1022 30.18 851 25.13 26.5 79.7 25 5.2 41.3
15:40 1022 30.18 851 25.13 26.6 79.9 23 4.1 39.4
15:45 1022 30.18 851 25.13 26.9 80.4 23 4.6 40.2
15:50 1022 30.18 851 25.13 27.1 80.7 24 4.9 40.8
15:55 1022 30.18 851 25.13 27.2 81 23 4.4 39.9
16:00 1022 30.18 851 25.13 27.4 81.3 21 3.4 38.1
16:05 1022 30.18 851 25.13 27.4 81.2 20 3 37.4
16:10 1021 30.15 851 25.13 27.4 81.3 19 2 35.7
16:15 1021 30.15 851 25.13 27.2 81 20 2.6 36.7
16:20 1021 30.15 850 25.1 27.3 81.2 20 2.6 36.7
16:25 1021 30.15 850 25.1 27.5 81.6 19 2.5 36.5
16:30 1021 30.15 850 25.1 27.5 81.5 21 3.6 38.4
16:35 1021 30.15 850 25.1 27.5 81.4 21 3.4 38.1
16:40 1021 30.15 850 25.1 27.4 81.3 20 3.1 37.5
16:45 1021 30.15 850 25.1 27.2 80.9 20 2.4 36.4
16:50 1021 30.15 850 25.1 26.9 80.4 20 2.1 35.8
16:55 1021 30.15 850 25.1 27.1 80.7 21 2.9 37.3
17:00 1021 30.15 850 25.1 27.5 81.4 19 2.4 36.3
17:05 1021 30.15 850 25.1 27.1 80.8 20 2.8 37
17:10 1021 30.15 850 25.1 27 80.6 19 2 35.5
17:15 1021 30.15 850 25.1 27.1 80.7 19 1.6 34.8
17:20 1020 30.12 850 25.1 26.9 80.5 19 1.9 35.4
17:25 1020 30.12 850 25.1 26.9 80.4 19 1.3 34.4
17:30 1020 30.12 850 25.1 27 80.5 18 1.2 34.1
17:35 1020 30.12 850 25.1 27 80.6 19 1.6 34.8
17:40 1020 30.12 849 25.07 27 80.5 19 1.4 34.6
17:45 1020 30.12 849 25.07 27 80.6 19 1.5 34.7
17:50 1020 30.12 849 25.07 27 80.5 18 1.1 34
17:55 1020 30.12 849 25.07 26.8 80.3 18 0.6 33.1
18:00 1020 30.12 849 25.07 26.8 80.3 18 0.9 33.7
18:05 1020 30.12 849 25.07 26.8 80.3 18 1 33.8
18:10 1020 30.12 849 25.07 26.9 80.3 19 1.6 34.8
18:15 1020 30.12 849 25.07 26.7 80.1 19 1.1 34
18:20 1020 30.12 849 25.07 26.7 80 19 1.7 35
18:25 1020 30.12 849 25.07 26.6 79.9 19 1.6 35
18:30 1020 30.12 849 25.07 26.5 79.6 20 2 35.6
18:35 1020 30.12 849 25.07 26.3 79.4 19 1 33.8
18:40 1020 30.12 849 25.07 26.3 79.3 19 1.3 34.3
18:45 1020 30.12 849 25.07 26.2 79.2 19 1.3 34.4
18:50 1020 30.12 849 25.07 26.1 79 20 1.4 34.5
18:55 1020 30.12 849 25.07 26.1 78.9 20 1.4 34.5
19:00 1020 30.12 849 25.07 26 78.8 20 1.5 34.7
19:05 1020 30.12 849 25.07 25.8 78.4 20 1.2 34.1
19:10 1020 30.12 849 25.07 25.8 78.4 20 1.1 34
19:15 1020 30.12 849 25.07 25.6 78.1 20 1.3 34.3
19:20 1020 30.12 849 25.07 25.4 77.7 21 1.4 34.6
19:25 1020 30.12 849 25.07 25.2 77.3 21 1.5 34.7
19:30 1020 30.12 849 25.07 25 76.9 21 1.4 34.5
19:35 1020 30.12 849 25.07 24.9 76.7 21 1.1 34
19:40 1020 30.12 849 25.07 24.7 76.5 21 1 33.7
19:45 1020 30.12 849 25.07 24.5 76.2 21 1 33.7
19:50 1019 30.09 849 25.07 24.4 76 21 0.9 33.6
19:55 1019 30.09 849 25.07 24.3 75.7 21 1.1 34
20:00 1019 30.09 849 25.07 24.2 75.6 21 0.8 33.4
20:05 1019 30.09 849 25.07 24.2 75.5 21 0.6 33.2
20:10 1019 30.09 849 25.07 24.1 75.4 21 0.6 33
20:15 1019 30.09 849 25.07 24.1 75.4 21 0.4 32.7
20:20 1019 30.09 849 25.07 24.1 75.3 21 0.5 32.8
20:25 1019 30.09 849 25.07 24 75.1 21 0.5 32.9
20:30 1019 30.09 849 25.07 23.8 74.9 21 0.5 32.9
20:35 1019 30.09 849 25.07 23.8 74.9 21 0.2 32.3
20:40 1019 30.09 849 25.07 23.8 74.9 21 0.3 32.5
20:45 1019 30.09 848 25.04 23.8 74.8 21 0.1 32.2
20:50 1019 30.09 848 25.04 23.9 74.9 20 0 32
20:55 1019 30.09 848 25.04 23.8 74.9 21 0.3 32.5
21:00 1019 30.09 848 25.04 23.7 74.6 21 0.1 32.3
21:05 1019 30.09 848 25.04 23.6 74.4 21 0.2 32.3
21:10 1019 30.09 848 25.04 23.5 74.2 21 0 32.1
21:15 1019 30.09 849 25.07 23.4 74.2 21 0.3 32.5
21:20 1019 30.09 848 25.04 23.2 73.7 22 0.2 32.4
21:25 1019 30.09 848 25.04 23.1 73.5 22 0.1 32.2
21:30 1019 30.09 848 25.04 23.1 73.6 21 -0.1 31.9
21:35 1019 30.09 848 25.04 23.3 73.9 21 -0.2 31.7
21:40 1019 30.09 848 25.04 23.4 74.2 21 -0.1 31.7
21:45 1019 30.09 848 25.04 23.3 73.9 22 0.4 32.7
21:50 1019 30.09 848 25.04 23 73.4 22 0.4 32.7
21:55 1019 30.09 848 25.04 22.8 73.1 23 0.5 32.9
22:00 1019 30.09 848 25.04 22.7 72.9 23 0.6 33
22:05 1019 30.09 848 25.04 22.8 73 23 0.6 33
22:10 1019 30.09 848 25.04 22.9 73.2 22 0.4 32.6
22:15 1019 30.09 848 25.04 23 73.5 23 0.7 33.3
22:20 1019 30.09 848 25.04 22.9 73.2 23 0.7 33.3
22:25 1019 30.09 848 25.04 22.8 73 23 0.9 33.7
22:30 1019 30.09 848 25.04 22.5 72.5 23 0.6 33.1
22:35 1019 30.09 848 25.04 22.5 72.5 24 1.2 34.1
22:40 1019 30.09 848 25.04 22.3 72.1 24 0.7 33.2
22:45 1019 30.09 849 25.07 22.2 72 25 1.3 34.3
22:50 1019 30.09 849 25.07 21.8 71.2 25 1.2 34.1
22:55 1019 30.09 849 25.07 22 71.6 25 1.1 34
23:00 1019 30.09 849 25.07 22.1 71.7 25 1.3 34.4
23:05 1019 30.09 849 25.07 21.9 71.4 25 1.3 34.3
23:10 1019 30.09 849 25.07 21.8 71.3 26 1.4 34.6
23:15 1019 30.09 849 25.07 21.4 70.6 27 1.6 34.9
23:20 1019 30.09 849 25.07 21.2 70.2 27 1.7 35
23:25 1019 30.09 849 25.07 21 69.7 28 1.8 35.3
23:30 1019 30.09 849 25.07 20.5 69 29 2.1 35.7
23:35 1019 30.09 849 25.07 20.5 68.9 29 2 35.6
23:40 1019 30.09 849 25.07 20.6 69 30 2.5 36.5
23:45 1019 30.09 849 25.07 20.5 68.8 30 2.5 36.5
23:50 1019 30.09 849 25.07 20.3 68.6 31 2.9 37.3
23:55 1019 30.09 849 25.07 19.9 67.9 31 2.5 36.5
24:00 1019 30.09 848 25.04 19.9 67.8 31 2.6 36.7